Station: Portable Rfsnsw10  

  Atmospheric Gas Attenuation - ITU Rec 676-11   ----------------- dB/100km -----------------
Date Time Temp RH % AH g/m3 Dew Point Wind Direction Speed kph Gust kph Barometer mB Rainfall Since 9am 24GHz 47GHz 76GHz 122GHz 134GHz 241GHz
08/05 12:20 17.8 45 6.83 5.7 7 7 1013.1 0 15.7 22.1 31.3 81.9 72.1 246.7
08/05 12:10 17.8 44 6.68 5.6 7 9 1013.1 0 15.3 21.9 30.8 80.5 70.3 240.5
08/05 11:50 17.6 45 6.75 5.5 7 7 1013.1 0 15.5 22.1 31.1 81.4 71.3 244.0
08/05 11:30 17.3 47 6.92 5.9 7 9 1013.1 0 15.9 22.4 31.9 83.3 73.6 251.9
08/05 11:20 17.1 45 6.55 5.1 7 9 1013.1 0 15.1 21.9 30.6 80.0 69.4 237.2
08/05 11:10 16.5 48 6.74 5.5 7 11 1013.1 0 15.5 22.3 31.5 82.4 72.2 246.9
08/05 10:50 16 49 6.68 5.5 7 7 1013.1 0 15.4 22.3 31.5 82.3 71.9 245.9
08/05 10:30 15.4 50 6.57 5.1 7 9 1013.1 0 15.2 22.3 31.3 81.9 71.1 243.1
08/05 10:20 15 50 6.41 4.8 6 7 1013.1 0 14.9 22.2 30.9 80.7 69.6 237.6
08/05 10:10 14.8 53 6.71 5.5 6 7 1013.1 0 15.5 22.7 32.1 83.8 73.4 250.9
08/05 10:00 14.3 53 6.51 4.9 7 9 1013.1 0 15.1 22.5 31.5 82.4 71.4 243.9
08/05 09:50 14.1 55 6.68 5.2 6 9 1013.1 0 15.5 22.8 32.2 84.3 73.6 251.8
08/05 09:40 14.1 56 6.8 5.5 7 9 1013.1 0 15.7 23.0 32.7 85.5 75.1 256.9
08/05 09:30 13.5 55 6.43 4.8 7 7 1013.1 0 15.0 22.6 31.6 82.4 71.1 242.9
08/05 09:20 13 55 6.24 4.3 6 7 1013.1 0 14.6 22.4 31.0 81.1 69.3 236.3
08/05 09:10 12.5 57 6.27 4.2 7 7 1013.1 0 14.7 22.6 31.3 81.9 70.1 239.0
08/05 09:00 12.1 57 6.11 4 7 9 1013.1 0 14.4 22.5 30.9 80.7 68.5 233.3
08/05 08:50 11.8 57 6 3.5 7 9 1013.1 0 14.1 22.4 30.6 79.9 67.4 229.4
08/05 08:40 11.6 57 5.93 3.4 7 7 1013.1 0 14.0 22.3 30.4 79.4 66.7 227.0
08/05 08:30 11.4 56 5.75 2.9 7 9 1013.1 0 13.6 22.1 29.8 77.8 64.6 219.8
08/05 08:20 11 57 5.71 2.8 7 9 1013.1 0 13.5 22.1 29.8 77.8 64.5 219.2
08/05 08:10 10.6 58 5.66 2.7 7 9 1013.1 0 13.4 22.1 29.8 77.7 64.2 218.1
08/05 08:00 10.2 59 5.62 2.6 7 9 1013.1 0 13.4 22.2 29.8 77.7 64.0 217.5
08/05 07:50 9.9 60 5.6 2.5 7 9 1013.1 0 13.3 22.2 29.8 77.8 64.0 217.4
08/05 07:40 9.7 60 5.53 2.4 7 9 1013.1 0 13.2 22.2 29.6 77.3 63.3 214.9
08/05 07:30 9.6 59 5.41 2.1 9 9 1013.1 0 12.9 22.0 29.2 76.2 61.9 210.0
08/05 07:20 9.5 59 5.37 2 7 11 1013.1 0 12.9 22.0 29.1 75.9 61.5 208.5
08/05 07:10 9.4 59 5.34 1.8 7 7 1013.1 0 12.8 22.0 29.0 75.7 61.2 207.5
08/05 07:00 9.4 58 5.25 1.5 7 9 1013.1 0 12.6 21.8 28.7 74.8 60.1 203.6
08/05 06:50 9.1 59 5.24 1.5 7 9 1013.1 0 12.6 21.9 28.8 74.9 60.2 203.9
08/05 06:40 9.1 59 5.24 1.6 7 9 1013.1 0 12.6 21.9 28.8 74.9 60.2 203.9
08/05 06:30 9 59 5.2 1.4 7 9 1013.1 0 12.5 21.8 28.7 74.6 59.8 202.4
08/05 06:20 9 58 5.12 1.3 9 9 1013.1 0 12.4 21.7 28.4 73.8 58.8 199.0
08/05 06:10 9 59 5.2 1.4 7 7 1013.1 0 12.5 21.8 28.7 74.6 59.8 202.4
08/05 05:50 8.6 61 5.24 1.5 7 9 1013.1 0 12.6 22.0 29.0 75.4 60.6 205.2
08/05 05:40 8.6 61 5.24 1.5 7 9 1013.1 0 12.6 22.0 29.0 75.4 60.6 205.2
08/05 05:20 8.7 60 5.19 1.5 7 9 1013.1 0 12.5 21.9 28.7 74.8 59.9 202.8
08/05 05:10 8.7 59 5.1 1.2 7 7 1013.1 0 12.3 21.8 28.4 73.9 58.8 198.9
08/05 05:00 8.8 59 5.14 1.2 7 7 1013.1 0 12.4 21.8 28.5 74.2 59.2 200.4
08/05 04:30 8.6 58 4.99 0.9 6 7 1013.1 0 12.1 21.6 28.0 72.9 57.5 194.4
08/05 03:50 8.2 60 5.03 0.9 7 7 1013.1 0 12.2 21.8 28.3 73.7 58.3 197.1
08/05 03:40 8.1 61 5.08 1.1 6 6 1013.1 0 12.3 21.9 28.5 74.3 59.0 199.5
08/05 03:20 8.2 58 4.86 0.4 6 7 1013.1 0 11.8 21.5 27.7 72.0 56.2 189.7
08/05 03:00 8.1 58 4.83 0.5 6 7 1013.1 0 11.8 21.5 27.6 71.8 55.9 188.7
08/05 02:50 8.1 58 4.83 0.4 6 6 1013.1 0 11.8 21.5 27.6 71.8 55.9 188.7
08/05 02:40 8.4 57 4.84 0.5 6 6 1013.1 0 11.8 21.4 27.5 71.6 55.8 188.4
08/05 02:30 8.7 55 4.76 0.3 6 7 1013.1 0 11.6 21.3 27.1 70.6 54.6 184.3
08/05 02:20 8.7 55 4.76 0.3 6 7 1013.1 0 11.6 21.3 27.1 70.6 54.6 184.3
08/05 02:10 8.8 55 4.79 0.4 6 7 1013.1 0 11.7 21.3 27.2 70.8 54.9 185.3
08/05 02:00 8.9 54 4.73 0.1 6 7 1013.1 0 11.5 21.2 27.0 70.1 54.1 182.5
08/05 01:20 8.9 54 4.73 0.1 7 7 1013.1 0 11.5 21.2 27.0 70.1 54.1 182.5
08/05 01:10 9 53 4.67 0 7 7 1013.1 0 11.4 21.1 26.7 69.4 53.3 179.8
08/05 00:50 9.1 53 4.7 0.2 7 9 1013.1 0 11.5 21.1 26.8 69.6 53.6 180.8
08/05 00:40 9 53 4.67 -0.1 7 9 1013.1 0 11.4 21.1 26.7 69.4 53.3 179.8
08/05 00:30 8.9 54 4.73 0.1 7 7 1013.1 0 11.5 21.2 27.0 70.1 54.1 182.5
08/05 00:10 9.2 53 4.73 0.1 7 7 1013.1 0 11.5 21.1 26.9 69.8 53.9 181.9
08/05 00:00 9.4 52 4.7 0.2 7 9 1013.1 0 11.4 21.0 26.7 69.4 53.4 180.2
07/05 23:50 9.4 52 4.7 0.2 6 7 1013.1 0 11.4 21.0 26.7 69.4 53.4 180.2
07/05 23:40 9.5 51 4.64 0 6 7 1013.1 0 11.3 20.9 26.4 68.7 52.6 177.4
07/05 23:30 9.6 49 4.49 -0.4 7 9 1013.1 0 11.0 20.7 25.9 67.2 50.8 170.9
07/05 23:20 9.5 51 4.64 -0.2 6 7 1013.1 0 11.3 20.9 26.4 68.7 52.6 177.4
07/05 23:10 9.6 49 4.49 -0.4 7 7 1013.1 0 11.0 20.7 25.9 67.2 50.8 170.9
07/05 23:00 9.7 49 4.52 -0.3 6 7 1013.1 0 11.1 20.7 25.9 67.4 51.1 172.0
07/05 22:50 9.6 49 4.49 -0.6 6 7 1013.1 0 11.0 20.7 25.9 67.2 50.8 170.9
07/05 22:40 9.8 48 4.45 -0.5 7 9 1013.1 0 10.9 20.6 25.7 66.6 50.2 168.8
07/05 22:30 9.8 48 4.45 -0.7 7 7 1013.1 0 10.9 20.6 25.7 66.6 50.2 168.8
07/05 22:20 10 47 4.42 -0.8 7 9 1013.1 0 10.8 20.5 25.5 66.2 49.7 167.2
07/05 22:00 10.1 46 4.35 -0.9 7 9 1013.1 0 10.7 20.3 25.2 65.4 48.8 164.1
07/05 21:50 10.2 46 4.38 -0.8 7 9 1013.1 0 10.7 20.4 25.3 65.6 49.1 165.1
07/05 21:40 10.2 46 4.38 -0.8 7 9 1013.1 0 10.7 20.4 25.3 65.6 49.1 165.1
07/05 21:30 10.3 46 4.41 -0.7 7 9 1013.1 0 10.8 20.4 25.4 65.8 49.4 166.2
07/05 21:20 10.2 46 4.38 -0.8 7 9 1013.1 0 10.7 20.4 25.3 65.6 49.1 165.1
07/05 21:10 10.3 46 4.41 -0.6 7 9 1013.1 0 10.8 20.4 25.4 65.8 49.4 166.2
07/05 21:00 10.3 47 4.5 -0.5 7 7 1013.1 0 11.0 20.5 25.7 66.7 50.5 169.9
07/05 20:50 10.5 45 4.37 -0.8 7 7 1013.1 0 10.7 20.3 25.2 65.3 48.8 164.1
07/05 20:40 10.6 45 4.39 -0.7 7 9 1013.1 0 10.7 20.3 25.2 65.4 49.0 164.7
07/05 20:30 10.6 46 4.49 -0.6 6 7 1013.1 0 11.0 20.4 25.6 66.3 50.2 168.8
07/05 20:20 10.8 44 4.35 -1 7 7 1013.1 0 10.7 20.2 25.0 64.9 48.4 162.7
07/05 20:10 10.9 43 4.28 -1 7 7 1013.1 0 10.5 20.1 24.7 64.1 47.5 159.6
07/05 20:00 11.1 42 4.23 -1.1 7 9 1013.1 0 10.4 20.0 24.5 63.5 46.8 157.2
07/05 19:50 11.2 42 4.26 -1.3 7 9 1013.1 0 10.5 20.0 24.6 63.7 47.1 158.3
07/05 19:30 11.4 40 4.11 -1.5 7 11 1013.1 0 10.1 19.7 24.0 62.2 45.3 151.8
07/05 19:20 11.5 41 4.24 -1.2 7 9 1013.1 0 10.4 19.9 24.4 63.3 46.7 156.9
07/05 19:10 11.7 39 4.08 -1.8 7 9 1013.1 0 10.1 19.6 23.8 61.7 44.8 150.1
07/05 19:00 11.7 38 3.98 -1.9 7 9 1013.1 0 9.8 19.5 23.5 60.7 43.7 146.1
07/05 18:50 11.8 39 4.11 -1.5 7 9 1013.1 0 10.1 19.6 23.9 61.9 45.1 151.1
07/05 18:40 11.8 39 4.11 -1.7 7 9 1013.1 0 10.1 19.6 23.9 61.9 45.1 151.1
07/05 18:30 11.8 40 4.21 -1.4 6 7 1013.1 0 10.3 19.8 24.2 62.8 46.2 155.1
07/05 18:20 12.1 39 4.18 -1.4 7 9 1013.1 0 10.3 19.7 24.0 62.3 45.7 153.3
07/05 18:10 12.2 38 4.1 -1.6 7 9 1013.1 0 10.1 19.5 23.7 61.5 44.7 150.0
07/05 18:00 12.4 38 4.15 -1.5 7 9 1013.1 0 10.2 19.6 23.8 61.8 45.2 151.6
07/05 17:40 12.7 36 4.01 -2 9 13 1013.1 0 9.9 19.3 23.3 60.3 43.5 145.5
07/05 17:30 12.7 35 3.9 -2.3 9 11 1013.1 0 9.7 19.2 22.9 59.3 42.2 141.2
07/05 17:20 12.7 35 3.9 -2.1 9 11 1013.1 0 9.7 19.2 22.9 59.3 42.2 141.2
07/05 17:10 12.8 36 4.03 -1.8 7 9 1013.1 0 9.9 19.3 23.3 60.4 43.6 146.1
07/05 16:50 13.4 34 3.95 -2.1 9 11 1013.1 0 9.7 19.1 22.9 59.2 42.4 142.0
07/05 16:40 13.5 33 3.86 -2.2 9 11 1013.1 0 9.5 18.9 22.6 58.4 41.4 138.3
07/05 16:30 13.7 32 3.79 -2.7 11 13 1013.1 0 9.4 18.8 22.3 57.6 40.5 135.3
07/05 16:10 14.3 32 3.93 -2.2 7 9 1013.1 0 9.7 18.9 22.6 58.4 41.7 139.7
07/05 16:00 14.5 31 3.86 -2.2 6 7 1013.1 0 9.5 18.7 22.3 57.7 40.9 136.7

Last Refresh: 08-May-2026 12:09:22

Bureau of Meteorology